Time;durP1;ratioP1;P1;durP2;ratioP2;P2;SDS_P1;SDS_P2;PMS_P1;PMS_P2;Temp;Humidity;BMP_temperature;BMP_pressure;BME280_temperature;BME280_humidity;BME280_pressure;Samples;Min_cycle;Max_cycle;Signal;HPM_P1;HPM_P2
2021/07/14 00:00:34;;;;;;;12.30;10.87;;;21.00;99.90;;;;;;5085451;28;21179;-45
2021/07/14 00:03:01;;;;;;;11.30;10.17;;;21.00;99.90;;;;;;5088670;28;20224;-46
2021/07/14 00:05:27;;;;;;;10.80;9.70;;;21.00;99.90;;;;;;5086097;28;20341;-47
2021/07/14 00:07:54;;;;;;;9.87;8.87;;;21.00;99.90;;;;;;5088914;28;20705;-45
2021/07/14 00:10:24;;;;;;;9.48;8.68;;;21.00;99.90;;;;;;5099436;28;20425;-48
2021/07/14 00:12:58;;;;;;;9.77;8.97;;;21.00;99.90;;;;;;5088319;28;20221;-47
2021/07/14 00:23:42;;;;;;;9.73;8.87;;;21.00;99.90;;;;;;5093313;28;20690;-45
2021/07/14 00:26:09;;;;;;;10.50;9.60;;;21.00;99.90;;;;;;5078656;28;20198;-45
2021/07/14 00:28:35;;;;;;;10.57;9.67;;;21.00;99.90;;;;;;5085601;28;20216;-46
2021/07/14 00:31:05;;;;;;;9.90;8.93;;;21.00;99.90;;;;;;5084444;28;20201;-46
2021/07/14 00:33:33;;;;;;;10.27;9.37;;;21.00;99.90;;;;;;5088783;28;20228;-45
2021/07/14 00:36:00;;;;;;;9.33;8.63;;;21.00;99.90;;;;;;5083367;28;20205;-45
2021/07/14 00:38:26;;;;;;;12.80;9.87;;;21.00;99.90;;;;;;5086609;28;20213;-45
2021/07/14 00:40:53;;;;;;;11.53;10.37;;;21.00;99.90;;;;;;5082599;28;20202;-45
2021/07/14 00:43:20;;;;;;;11.40;9.30;;;20.90;99.90;;;;;;5074434;28;20434;-45
2021/07/14 00:45:46;;;;;;;11.33;8.93;;;20.90;99.90;;;;;;5096946;28;20194;-47
2021/07/14 00:48:15;;;;;;;11.43;10.30;;;20.90;99.90;;;;;;5092929;28;20221;-45
2021/07/14 00:50:43;;;;;;;9.97;8.97;;;20.90;99.90;;;;;;5078013;28;20270;-46
2021/07/14 00:53:10;;;;;;;11.33;9.83;;;21.00;99.90;;;;;;5091433;28;20577;-46
2021/07/14 00:55:36;;;;;;;10.90;9.82;;;20.90;99.90;;;;;;5082927;28;20559;-46
2021/07/14 00:58:03;;;;;;;10.50;9.60;;;20.90;99.90;;;;;;5086790;28;20201;-45
2021/07/14 01:00:30;;;;;;;9.88;8.88;;;20.90;99.90;;;;;;5085243;28;20213;-45
2021/07/14 01:02:57;;;;;;;10.73;9.70;;;20.90;99.90;;;;;;5086989;28;20240;-45
2021/07/14 01:05:33;;;;;;;10.53;9.60;;;20.90;99.90;;;;;;5083918;28;20202;-45
2021/07/14 01:08:09;;;;;;;10.83;9.77;;;20.80;99.90;;;;;;5086212;28;20213;-47
2021/07/14 01:10:42;;;;;;;10.03;9.13;;;20.80;99.90;;;;;;5087956;28;20200;-47
2021/07/14 01:13:13;;;;;;;11.47;9.93;;;20.80;99.90;;;;;;5088534;28;20233;-45
2021/07/14 01:15:47;;;;;;;12.33;11.07;;;20.80;99.90;;;;;;5094329;28;20887;-47
2021/07/14 01:18:19;;;;;;;11.97;10.77;;;20.80;99.90;;;;;;5080436;28;20221;-45
2021/07/14 01:20:59;;;;;;;16.13;10.77;;;20.80;99.90;;;;;;5085835;28;20193;-45
2021/07/14 01:23:36;;;;;;;12.53;11.20;;;20.80;99.90;;;;;;5092541;28;20247;-45
2021/07/14 01:26:10;;;;;;;11.73;10.47;;;20.80;99.90;;;;;;5084215;28;20264;-47
2021/07/14 01:28:40;;;;;;;12.77;11.03;;;20.70;99.90;;;;;;5083951;28;20590;-46
2021/07/14 01:31:10;;;;;;;12.70;11.33;;;20.70;99.90;;;;;;5093178;28;20202;-46
2021/07/14 01:33:40;;;;;;;10.77;9.53;;;20.70;99.90;;;;;;5083256;28;20218;-46
2021/07/14 01:36:11;;;;;;;18.40;11.63;;;20.70;99.90;;;;;;5103090;28;20185;-47
2021/07/14 01:38:41;;;;;;;10.60;9.43;;;20.70;99.90;;;;;;5085340;28;20197;-45
2021/07/14 01:41:09;;;;;;;11.63;10.53;;;20.70;99.90;;;;;;5098252;28;20205;-46
2021/07/14 01:43:42;;;;;;;11.93;10.83;;;20.70;99.90;;;;;;5085388;28;20260;-46
2021/07/14 01:46:11;;;;;;;11.93;10.80;;;20.70;99.90;;;;;;5091521;28;20210;-46
2021/07/14 01:48:39;;;;;;;11.87;10.67;;;20.70;99.90;;;;;;5097124;28;20217;-45
2021/07/14 01:51:07;;;;;;;11.87;10.80;;;20.60;99.90;;;;;;5087327;28;20217;-48
2021/07/14 01:53:35;;;;;;;12.20;11.00;;;20.60;99.90;;;;;;5079943;28;20450;-46
2021/07/14 01:56:04;;;;;;;12.50;11.20;;;20.60;99.90;;;;;;5103193;28;20201;-45
2021/07/14 01:58:33;;;;;;;11.33;10.23;;;20.60;99.90;;;;;;5079757;28;20414;-45
2021/07/14 02:01:01;;;;;;;10.83;9.73;;;20.70;99.90;;;;;;5095096;28;20212;-45
2021/07/14 02:03:43;;;;;;;12.17;10.87;;;20.70;99.90;;;;;;5081455;27;20708;-45
2021/07/14 02:06:11;;;;;;;12.03;10.93;;;20.70;99.90;;;;;;5098025;28;20190;-45
2021/07/14 02:08:40;;;;;;;11.47;10.23;;;20.60;99.90;;;;;;5077746;28;20222;-45
2021/07/14 02:11:07;;;;;;;11.43;9.70;;;20.60;99.90;;;;;;5097378;28;20205;-47
2021/07/14 02:13:36;;;;;;;13.73;12.30;;;20.70;99.90;;;;;;5083803;28;20425;-46
2021/07/14 02:16:07;;;;;;;12.03;10.77;;;20.60;99.90;;;;;;5091367;28;20701;-44
2021/07/14 02:18:40;;;;;;;11.97;10.87;;;20.60;99.90;;;;;;5082962;28;20428;-49
2021/07/14 02:21:06;;;;;;;12.00;10.80;;;20.60;99.90;;;;;;5092574;28;20198;-45
2021/07/14 02:23:36;;;;;;;13.27;11.43;;;20.60;99.90;;;;;;5079478;28;20376;-47
2021/07/14 02:26:04;;;;;;;11.00;10.10;;;20.60;99.90;;;;;;5091996;28;20193;-45
2021/07/14 02:28:31;;;;;;;12.40;11.10;;;20.60;99.90;;;;;;5089177;28;20222;-45
2021/07/14 02:30:58;;;;;;;13.77;12.47;;;20.60;99.90;;;;;;5084171;28;20198;-45
2021/07/14 02:33:26;;;;;;;14.03;12.20;;;20.60;99.90;;;;;;5072159;28;21011;-45
2021/07/14 02:35:57;;;;;;;13.60;12.20;;;20.60;99.90;;;;;;5093694;28;20201;-45
2021/07/14 02:38:29;;;;;;;14.27;12.87;;;20.50;99.90;;;;;;5083971;28;20193;-46
2021/07/14 02:41:02;;;;;;;12.73;11.43;;;20.50;99.90;;;;;;5079953;28;20216;-45
2021/07/14 02:43:29;;;;;;;12.87;11.57;;;20.50;99.90;;;;;;5094965;28;20225;-44
2021/07/14 02:45:59;;;;;;;10.97;10.03;;;20.50;99.90;;;;;;5079595;28;20202;-45
2021/07/14 02:48:28;;;;;;;16.10;13.03;;;20.50;99.90;;;;;;5076851;28;20244;-45
2021/07/14 02:50:57;;;;;;;13.40;12.10;;;20.50;99.90;;;;;;5081848;28;20683;-47
2021/07/14 02:53:27;;;;;;;16.30;12.50;;;20.50;99.90;;;;;;5080696;28;20751;-45
2021/07/14 02:55:57;;;;;;;14.63;13.17;;;20.50;99.90;;;;;;5087362;28;20216;-47
2021/07/14 02:58:27;;;;;;;12.33;11.07;;;20.50;99.90;;;;;;5089163;28;20587;-45
2021/07/14 03:00:55;;;;;;;11.67;10.47;;;20.50;99.90;;;;;;5082889;28;20200;-47
2021/07/14 03:03:23;;;;;;;12.83;11.47;;;20.50;99.90;;;;;;5074621;28;20233;-47
2021/07/14 03:05:54;;;;;;;12.63;11.40;;;20.40;99.90;;;;;;5092982;28;20209;-45
2021/07/14 03:08:23;;;;;;;12.73;11.37;;;20.40;99.90;;;;;;5086328;28;20808;-46
2021/07/14 03:10:50;;;;;;;15.87;12.67;;;20.50;99.90;;;;;;5077527;28;20209;-47
2021/07/14 03:13:17;;;;;;;13.43;11.43;;;20.50;99.90;;;;;;5092369;28;20220;-47
2021/07/14 03:15:44;;;;;;;13.50;12.10;;;20.40;99.90;;;;;;5095145;27;20204;-47
2021/07/14 03:18:11;;;;;;;14.73;12.23;;;20.40;99.90;;;;;;5081378;28;20199;-46
2021/07/14 03:20:39;;;;;;;13.07;11.63;;;20.40;99.90;;;;;;5082337;28;20197;-45
2021/07/14 03:23:08;;;;;;;14.73;12.40;;;20.40;99.90;;;;;;5089657;28;20210;-47
2021/07/14 03:25:35;;;;;;;14.70;12.70;;;20.40;99.90;;;;;;5081576;28;20205;-47
2021/07/14 03:28:02;;;;;;;15.00;13.17;;;20.40;99.90;;;;;;5078261;28;20217;-45
2021/07/14 03:30:29;;;;;;;14.40;12.90;;;20.40;99.90;;;;;;5095711;28;20328;-45
2021/07/14 03:32:56;;;;;;;13.70;12.37;;;20.30;99.90;;;;;;5083945;28;20229;-45
2021/07/14 03:35:23;;;;;;;14.87;12.20;;;20.30;99.90;;;;;;5080253;28;20217;-45
2021/07/14 03:37:52;;;;;;;13.93;12.63;;;20.30;99.90;;;;;;5087164;28;20220;-46
2021/07/14 03:40:21;;;;;;;15.57;12.30;;;20.30;99.90;;;;;;5074539;28;20833;-46
2021/07/14 03:42:50;;;;;;;15.37;13.60;;;20.30;99.90;;;;;;5082047;28;20221;-48
2021/07/14 03:45:17;;;;;;;12.73;11.53;;;20.30;99.90;;;;;;5092621;28;20201;-49
2021/07/14 03:47:44;;;;;;;14.80;13.40;;;20.30;99.90;;;;;;5085524;28;20549;-46
2021/07/14 03:50:12;;;;;;;13.90;12.40;;;20.30;99.90;;;;;;5075993;27;20198;-47
2021/07/14 03:52:39;;;;;;;13.37;12.07;;;20.30;99.90;;;;;;5080509;28;20217;-46
2021/07/14 03:55:09;;;;;;;14.87;13.40;;;20.30;99.90;;;;;;5092190;28;20190;-48
2021/07/14 03:57:38;;;;;;;15.03;12.80;;;20.30;99.90;;;;;;5081033;28;21033;-50
2021/07/14 04:00:06;;;;;;;13.63;12.37;;;20.30;99.90;;;;;;5092656;28;20201;-46
2021/07/14 04:02:34;;;;;;;16.37;12.80;;;20.20;99.90;;;;;;5087813;28;20554;-46
2021/07/14 04:05:01;;;;;;;18.20;13.40;;;20.20;99.90;;;;;;5095349;28;20200;-47
2021/07/14 04:07:29;;;;;;;13.97;12.53;;;20.30;99.90;;;;;;5080633;28;20205;-48
2021/07/14 04:09:57;;;;;;;14.07;12.70;;;20.20;99.90;;;;;;5090694;28;20271;-48
2021/07/14 04:12:24;;;;;;;13.47;12.27;;;20.30;99.90;;;;;;5094272;28;20624;-45
2021/07/14 04:14:52;;;;;;;16.77;13.97;;;20.30;99.90;;;;;;5084001;28;20209;-45
2021/07/14 04:17:18;;;;;;;15.57;14.00;;;20.20;99.90;;;;;;5091418;28;20414;-45
2021/07/14 04:19:45;;;;;;;16.37;14.77;;;20.20;99.90;;;;;;5088221;28;20198;-46
2021/07/14 04:22:13;;;;;;;14.93;13.27;;;20.20;99.90;;;;;;5072275;28;20643;-44
2021/07/14 04:24:40;;;;;;;16.70;14.03;;;20.20;99.90;;;;;;5082839;28;20218;-46
2021/07/14 04:27:08;;;;;;;18.17;13.93;;;20.20;99.90;;;;;;5080736;28;20196;-45
2021/07/14 04:29:35;;;;;;;16.27;14.07;;;20.20;99.90;;;;;;5080414;28;20239;-48
2021/07/14 04:32:04;;;;;;;15.43;13.73;;;20.20;99.90;;;;;;5083816;28;20202;-45
2021/07/14 04:34:31;;;;;;;17.33;14.60;;;20.20;99.90;;;;;;5097436;28;20330;-45
2021/07/14 04:36:57;;;;;;;15.87;14.27;;;20.10;99.90;;;;;;5088135;28;20209;-45
2021/07/14 04:39:24;;;;;;;18.50;14.00;;;20.20;99.90;;;;;;5079482;28;20191;-48
2021/07/14 04:41:51;;;;;;;16.10;13.87;;;20.20;99.90;;;;;;5087285;28;20198;-46
2021/07/14 04:44:29;;;;;;;16.40;13.57;;;20.20;99.90;;;;;;5078455;28;20864;-45
2021/07/14 04:46:56;;;;;;;15.30;13.17;;;20.20;99.90;;;;;;5092370;28;20227;-45
2021/07/14 04:49:24;;;;;;;16.67;15.07;;;20.20;99.90;;;;;;5089941;28;20432;-45
2021/07/14 04:51:51;;;;;;;17.30;14.00;;;20.20;99.90;;;;;;5082983;28;20209;-47
2021/07/14 04:54:17;;;;;;;16.97;15.03;;;20.20;99.90;;;;;;5080132;28;20602;-46
2021/07/14 04:56:45;;;;;;;15.47;13.93;;;20.20;99.90;;;;;;5088610;28;20202;-48
2021/07/14 04:59:12;;;;;;;14.27;12.63;;;20.20;99.90;;;;;;5081292;28;20204;-45
2021/07/14 05:01:39;;;;;;;16.60;13.77;;;20.20;99.90;;;;;;5084029;28;20489;-45
2021/07/14 05:04:05;;;;;;;20.67;15.63;;;20.30;99.90;;;;;;5094113;28;20225;-44
2021/07/14 05:06:33;;;;;;;15.77;14.27;;;20.30;99.90;;;;;;5085082;28;20202;-47
2021/07/14 05:09:00;;;;;;;17.77;14.20;;;20.30;99.90;;;;;;5083664;28;20225;-44
2021/07/14 05:11:27;;;;;;;19.13;15.17;;;20.30;99.90;;;;;;5091335;28;20309;-47
2021/07/14 05:13:54;;;;;;;16.43;14.73;;;20.30;99.90;;;;;;5087522;28;20218;-45
2021/07/14 05:16:21;;;;;;;17.07;15.27;;;20.30;99.90;;;;;;5077017;28;20526;-45
2021/07/14 05:18:47;;;;;;;16.93;14.90;;;20.30;99.90;;;;;;5103501;28;20198;-44
2021/07/14 05:21:14;;;;;;;19.20;17.20;;;20.30;99.90;;;;;;5094469;28;20190;-45
2021/07/14 05:23:42;;;;;;;20.10;16.97;;;20.30;99.90;;;;;;5082142;28;20304;-45
2021/07/14 05:26:09;;;;;;;20.47;17.20;;;20.30;99.90;;;;;;5079926;28;20198;-46
2021/07/14 05:28:36;;;;;;;19.00;16.93;;;20.30;99.90;;;;;;5086172;28;20722;-47
2021/07/14 05:31:02;;;;;;;23.27;17.40;;;20.30;99.90;;;;;;5079415;28;20202;-45
2021/07/14 05:33:29;;;;;;;18.73;15.80;;;20.30;99.90;;;;;;5093220;28;20234;-46
2021/07/14 05:35:57;;;;;;;17.97;15.50;;;20.30;99.90;;;;;;5093543;28;20782;-45
2021/07/14 05:38:24;;;;;;;18.53;15.90;;;20.40;99.90;;;;;;5080326;28;20685;-45
2021/07/14 05:40:53;;;;;;;17.03;15.23;;;20.40;99.90;;;;;;5095388;28;20210;-45
2021/07/14 05:43:19;;;;;;;20.33;17.17;;;20.40;99.90;;;;;;5089599;28;20233;-45
2021/07/14 05:45:47;;;;;;;22.90;18.23;;;20.40;99.90;;;;;;5079997;28;20224;-45
2021/07/14 05:48:14;;;;;;;23.47;19.93;;;20.40;99.90;;;;;;5102129;28;20681;-44
2021/07/14 05:50:42;;;;;;;21.77;17.97;;;20.40;99.90;;;;;;5087858;28;20202;-44
2021/07/14 05:53:08;;;;;;;21.37;17.47;;;20.40;99.90;;;;;;5078708;28;20225;-45
2021/07/14 05:55:35;;;;;;;21.40;18.57;;;20.50;99.90;;;;;;5077062;28;20202;-44
2021/07/14 05:58:04;;;;;;;25.37;19.00;;;20.50;99.90;;;;;;5095712;28;20269;-44
2021/07/14 06:00:31;;;;;;;25.83;18.17;;;20.50;99.90;;;;;;5087142;28;20201;-44
2021/07/14 06:02:58;;;;;;;22.97;19.53;;;20.50;99.90;;;;;;5094362;28;20221;-46
2021/07/14 06:05:25;;;;;;;21.97;18.73;;;20.60;99.90;;;;;;5092499;28;20193;-44
2021/07/14 06:07:51;;;;;;;26.87;20.17;;;20.60;99.90;;;;;;5082224;28;20235;-45
2021/07/14 06:10:18;;;;;;;23.30;19.03;;;20.60;99.90;;;;;;5083500;28;20214;-44
2021/07/14 06:12:44;;;;;;;22.20;19.20;;;20.60;99.90;;;;;;5089675;28;20255;-47
2021/07/14 06:15:12;;;;;;;23.80;20.60;;;20.60;99.90;;;;;;5094042;28;20198;-46
2021/07/14 06:17:39;;;;;;;21.47;19.20;;;20.60;99.90;;;;;;5087488;28;20595;-48
2021/07/14 06:20:07;;;;;;;22.30;18.77;;;20.60;99.90;;;;;;5106951;28;20190;-46
2021/07/14 06:22:33;;;;;;;21.77;19.43;;;20.60;99.90;;;;;;5090495;28;20628;-46
2021/07/14 06:25:00;;;;;;;24.43;18.63;;;20.70;99.90;;;;;;5092426;28;20685;-49
2021/07/14 06:27:27;;;;;;;24.00;19.50;;;20.70;99.90;;;;;;5085417;28;20197;-46
2021/07/14 06:29:54;;;;;;;22.50;18.23;;;20.70;99.90;;;;;;5094524;28;20218;-50
2021/07/14 06:32:22;;;;;;;21.07;18.67;;;20.70;99.90;;;;;;5084527;28;20202;-44
2021/07/14 06:34:49;;;;;;;21.20;18.93;;;20.70;99.90;;;;;;5079878;28;20447;-50
2021/07/14 06:37:15;;;;;;;22.23;19.27;;;20.70;99.90;;;;;;5086442;28;20209;-46
2021/07/14 06:39:42;;;;;;;27.97;20.57;;;20.70;99.90;;;;;;5087407;28;20194;-45
2021/07/14 06:42:09;;;;;;;24.13;20.43;;;20.70;99.90;;;;;;5089942;28;20190;-45
2021/07/14 06:44:37;;;;;;;22.13;19.80;;;20.60;99.90;;;;;;5093190;28;20565;-45
2021/07/14 06:47:04;;;;;;;22.77;20.00;;;20.60;99.90;;;;;;5095870;28;20209;-48
2021/07/14 06:49:32;;;;;;;23.47;20.83;;;20.60;99.90;;;;;;5077113;28;20706;-44
2021/07/14 06:52:00;;;;;;;23.17;17.93;;;20.60;99.90;;;;;;5092191;28;20196;-46
2021/07/14 06:54:27;;;;;;;20.80;18.47;;;20.60;99.90;;;;;;5086902;28;20381;-44
2021/07/14 06:56:53;;;;;;;25.60;21.30;;;20.60;99.90;;;;;;5084187;28;20611;-45
2021/07/14 06:59:20;;;;;;;27.00;21.90;;;20.60;99.90;;;;;;5084961;28;20217;-45
2021/07/14 07:01:47;;;;;;;27.47;22.57;;;20.50;99.90;;;;;;5083092;28;20322;-45
2021/07/14 07:04:13;;;;;;;32.73;22.27;;;20.50;99.90;;;;;;5082346;28;20240;-46
2021/07/14 07:06:41;;;;;;;33.13;24.50;;;20.50;99.90;;;;;;5088521;28;20596;-47
2021/07/14 07:09:09;;;;;;;26.17;23.37;;;20.50;99.90;;;;;;5101374;28;20982;-45
2021/07/14 07:11:37;;;;;;;26.30;22.77;;;20.40;99.90;;;;;;5083948;28;20321;-46
2021/07/14 07:14:04;;;;;;;29.83;23.17;;;20.40;99.90;;;;;;5094942;28;20221;-46
2021/07/14 07:16:31;;;;;;;26.03;22.13;;;20.40;99.90;;;;;;5083389;28;20485;-46
2021/07/14 07:18:57;;;;;;;27.57;22.67;;;20.40;99.90;;;;;;5089098;28;20205;-46
2021/07/14 07:21:25;;;;;;;30.37;23.93;;;20.40;99.90;;;;;;5078656;28;20292;-44
2021/07/14 07:23:53;;;;;;;28.30;23.80;;;20.40;99.90;;;;;;5093866;28;20223;-45
2021/07/14 07:26:20;;;;;;;30.03;22.77;;;20.40;99.90;;;;;;5077832;28;20213;-45
2021/07/14 07:28:47;;;;;;;25.33;22.83;;;20.40;99.90;;;;;;5087430;28;20213;-45
2021/07/14 07:31:13;;;;;;;27.37;23.27;;;20.50;99.90;;;;;;5085979;28;20236;-46
2021/07/14 07:33:40;;;;;;;28.03;23.57;;;20.50;99.90;;;;;;5098762;28;20222;-44
2021/07/14 07:36:08;;;;;;;26.37;23.43;;;20.60;99.90;;;;;;5078992;28;20198;-49
2021/07/14 07:38:37;;;;;;;29.53;23.00;;;20.70;99.90;;;;;;5098700;28;20576;-46
2021/07/14 07:41:06;;;;;;;27.03;22.67;;;20.80;99.90;;;;;;5078985;28;20412;-49
2021/07/14 07:43:33;;;;;;;25.50;22.47;;;20.80;99.90;;;;;;5091091;28;20217;-46
2021/07/14 07:46:00;;;;;;;24.37;21.67;;;20.80;99.90;;;;;;5073674;28;20321;-44
2021/07/14 07:48:27;;;;;;;25.43;22.23;;;20.90;99.90;;;;;;5079989;28;20252;-46
2021/07/14 07:50:54;;;;;;;25.90;21.10;;;20.90;99.90;;;;;;5073971;28;20221;-46
2021/07/14 07:53:21;;;;;;;24.03;21.37;;;21.00;99.90;;;;;;5098894;28;20227;-44
2021/07/14 07:55:49;;;;;;;27.70;22.47;;;21.00;99.90;;;;;;5082245;28;20202;-44
2021/07/14 07:58:17;;;;;;;23.43;20.93;;;21.10;99.90;;;;;;5083499;28;20190;-45
2021/07/14 08:00:45;;;;;;;23.03;20.67;;;21.10;99.90;;;;;;5095097;28;20235;-48
2021/07/14 08:03:12;;;;;;;23.00;20.67;;;21.20;99.90;;;;;;5083022;28;20218;-44
2021/07/14 08:05:39;;;;;;;23.00;19.87;;;21.30;99.90;;;;;;5084752;28;20208;-45
2021/07/14 08:08:06;;;;;;;21.50;19.47;;;21.40;99.90;;;;;;5087208;28;20213;-44
2021/07/14 08:10:33;;;;;;;25.67;20.30;;;21.40;99.90;;;;;;5099995;28;20213;-47
2021/07/14 08:13:00;;;;;;;22.00;19.77;;;21.50;99.90;;;;;;5090394;28;20233;-46
2021/07/14 08:15:28;;;;;;;22.33;18.77;;;21.60;99.90;;;;;;5100916;28;20751;-45
2021/07/14 08:17:55;;;;;;;20.50;18.30;;;21.70;99.90;;;;;;5082136;28;20206;-46
2021/07/14 08:20:23;;;;;;;21.85;19.50;;;21.70;99.90;;;;;;5089664;28;20190;-47
2021/07/14 08:22:50;;;;;;;21.05;18.92;;;21.90;99.90;;;;;;5090651;28;20219;-47
2021/07/14 08:25:17;;;;;;;20.00;18.05;;;22.00;99.90;;;;;;5093556;28;20205;-47
2021/07/14 08:27:45;;;;;;;20.23;18.08;;;22.00;99.90;;;;;;5095239;28;20213;-46
2021/07/14 08:30:13;;;;;;;19.95;17.85;;;22.00;99.90;;;;;;5095790;28;20316;-47
2021/07/14 08:32:41;;;;;;;20.23;18.05;;;22.10;99.90;;;;;;5093624;28;20205;-48
2021/07/14 08:35:09;;;;;;;19.20;17.42;;;22.20;99.90;;;;;;5092433;28;20417;-47
2021/07/14 08:37:37;;;;;;;18.88;16.80;;;22.30;99.90;;;;;;5094486;28;20208;-51
2021/07/14 08:40:06;;;;;;;18.38;16.58;;;22.30;99.90;;;;;;5094071;28;20416;-47
2021/07/14 08:42:35;;;;;;;18.25;16.55;;;22.40;99.90;;;;;;5108956;28;20193;-47
2021/07/14 08:45:05;;;;;;;19.55;17.65;;;22.50;99.90;;;;;;5096315;28;20367;-50
2021/07/14 08:47:33;;;;;;;18.20;16.23;;;22.50;99.90;;;;;;5104495;28;20202;-47
2021/07/14 08:50:01;;;;;;;18.42;16.63;;;22.60;99.90;;;;;;5078746;28;20430;-45
2021/07/14 08:52:28;;;;;;;18.30;16.42;;;22.70;99.90;;;;;;5079588;28;20221;-48
2021/07/14 08:54:55;;;;;;;17.45;15.82;;;22.90;99.90;;;;;;5090483;27;20190;-44
2021/07/14 08:57:22;;;;;;;16.05;14.65;;;23.10;99.90;;;;;;5100018;28;20197;-46
2021/07/14 08:59:49;;;;;;;17.20;15.60;;;23.30;99.90;;;;;;5088049;28;20205;-45
2021/07/14 09:02:16;;;;;;;17.35;15.55;;;23.40;99.90;;;;;;5099137;28;20854;-44
2021/07/14 09:04:43;;;;;;;16.13;14.55;;;23.60;99.90;;;;;;5102715;28;20221;-47
2021/07/14 09:07:11;;;;;;;15.25;13.65;;;23.70;99.90;;;;;;5095252;28;20258;-45
2021/07/14 09:09:38;;;;;;;15.00;13.63;;;23.80;99.90;;;;;;5087707;28;20224;-47
2021/07/14 09:12:10;;;;;;;14.88;13.48;;;24.00;99.90;;;;;;5098559;28;20263;-47
2021/07/14 09:14:38;;;;;;;14.07;12.75;;;24.10;99.90;;;;;;5095572;28;20217;-47
2021/07/14 09:17:23;;;;;;;13.60;12.45;;;24.20;99.90;;;;;;5084359;28;20579;-46
2021/07/14 09:19:50;;;;;;;14.18;12.98;;;24.30;99.90;;;;;;5081715;28;20497;-49
2021/07/14 09:22:23;;;;;;;13.32;12.15;;;24.30;99.90;;;;;;5104771;28;20197;-47
2021/07/14 09:24:50;;;;;;;13.82;12.63;;;24.40;99.90;;;;;;5077116;28;20530;-47
2021/07/14 09:27:19;;;;;;;14.98;12.38;;;24.30;99.90;;;;;;5093509;28;20198;-47
2021/07/14 09:30:08;;;;;;;13.85;12.55;;;24.20;99.90;;;;;;5088821;28;20274;-46
2021/07/14 09:32:46;;;;;;;12.35;11.32;;;24.30;99.90;;;;;;5080291;28;20197;-48
2021/07/14 09:35:12;;;;;;;13.27;11.75;;;24.30;99.90;;;;;;5088917;28;20197;-46
2021/07/14 09:37:40;;;;;;;12.52;11.27;;;24.30;99.90;;;;;;5099142;28;20197;-46
2021/07/14 09:40:15;;;;;;;13.18;11.95;;;24.40;99.90;;;;;;5074026;28;20205;-44
2021/07/14 09:42:51;;;;;;;12.57;10.65;;;24.40;99.90;;;;;;5100598;28;20662;-46
2021/07/14 09:45:33;;;;;;;12.05;10.90;;;24.40;99.90;;;;;;5090314;28;20542;-49
2021/07/14 09:47:59;;;;;;;12.05;11.05;;;24.50;99.90;;;;;;5077583;28;20543;-49
2021/07/14 09:50:31;;;;;;;11.95;10.80;;;24.60;99.90;;;;;;5084658;28;20205;-47
2021/07/14 09:53:05;;;;;;;13.65;12.27;;;24.80;99.90;;;;;;5099201;28;20225;-47
2021/07/14 09:55:33;;;;;;;11.38;10.48;;;25.10;99.90;;;;;;5083963;28;20205;-49
2021/07/14 09:58:15;;;;;;;13.10;11.93;;;25.20;99.90;;;;;;5086513;28;21655;-45
2021/07/14 10:00:50;;;;;;;11.88;10.77;;;25.30;99.90;;;;;;5100240;28;20197;-50
2021/07/14 10:03:19;;;;;;;12.57;11.52;;;25.30;99.90;;;;;;5079734;28;20209;-47
2021/07/14 10:05:46;;;;;;;11.85;10.88;;;25.30;99.90;;;;;;5093096;28;20218;-47
2021/07/14 10:08:16;;;;;;;12.20;10.82;;;25.30;99.90;;;;;;5093046;28;20194;-47
2021/07/14 10:10:43;;;;;;;11.75;10.85;;;25.50;99.90;;;;;;5079544;28;20585;-45
2021/07/14 10:13:11;;;;;;;11.50;10.55;;;25.50;99.90;;;;;;5095749;28;20300;-49
2021/07/14 10:15:38;;;;;;;11.30;10.20;;;25.60;99.90;;;;;;5096678;28;20216;-46
2021/07/14 10:18:09;;;;;;;11.52;10.45;;;25.70;99.90;;;;;;5089232;28;20205;-49
2021/07/14 10:20:38;;;;;;;11.65;10.70;;;25.90;99.90;;;;;;5102856;28;20201;-45
2021/07/14 10:23:08;;;;;;;12.25;10.95;;;26.10;99.90;;;;;;5090651;28;20224;-49
2021/07/14 10:25:38;;;;;;;11.05;10.05;;;26.10;99.90;;;;;;5086065;28;20212;-47
2021/07/14 10:28:07;;;;;;;11.88;10.73;;;26.10;99.90;;;;;;5088369;28;20205;-45
2021/07/14 10:30:34;;;;;;;11.73;10.73;;;26.10;99.90;;;;;;5093608;28;20225;-46
2021/07/14 10:33:01;;;;;;;11.75;10.77;;;26.20;99.90;;;;;;5090615;28;20221;-47
2021/07/14 10:35:31;;;;;;;12.35;10.95;;;26.30;99.90;;;;;;5084532;28;20481;-46
2021/07/14 10:37:59;;;;;;;11.38;10.48;;;26.30;99.90;;;;;;5089893;28;20259;-44
2021/07/14 10:40:27;;;;;;;11.15;10.25;;;26.40;99.90;;;;;;5096028;28;20213;-51
2021/07/14 10:42:56;;;;;;;12.05;10.93;;;26.40;99.90;;;;;;5081929;28;20229;-46
2021/07/14 10:45:23;;;;;;;12.43;11.40;;;26.40;99.90;;;;;;5096991;27;20213;-49
2021/07/14 10:47:53;;;;;;;11.52;10.55;;;26.40;99.90;;;;;;5095023;28;20563;-46
2021/07/14 10:50:21;;;;;;;12.55;11.40;;;26.30;99.90;;;;;;5087133;28;20233;-48
2021/07/14 10:52:48;;;;;;;11.40;10.48;;;26.50;99.90;;;;;;5087464;28;20232;-45
2021/07/14 10:55:19;;;;;;;12.65;11.55;;;26.60;99.90;;;;;;5083028;28;20928;-46
2021/07/14 10:57:47;;;;;;;13.18;11.80;;;26.70;99.90;;;;;;5084964;28;20205;-45
2021/07/14 11:00:16;;;;;;;12.20;11.23;;;26.80;99.90;;;;;;5090475;27;20201;-49
2021/07/14 11:02:45;;;;;;;11.80;10.63;;;26.80;99.90;;;;;;5104021;28;20209;-46
2021/07/14 11:05:13;;;;;;;13.20;11.07;;;26.80;99.90;;;;;;5090543;28;20216;-47
2021/07/14 11:07:45;;;;;;;12.82;11.68;;;26.80;99.90;;;;;;5100943;28;20213;-46
2021/07/14 11:10:31;;;;;;;11.32;10.43;;;26.80;99.90;;;;;;5099555;28;20731;-46
2021/07/14 11:12:59;;;;;;;12.20;11.05;;;26.70;99.90;;;;;;5086018;28;20216;-47
2021/07/14 11:15:30;;;;;;;12.65;11.27;;;26.70;99.90;;;;;;5100128;28;20193;-46
2021/07/14 11:17:57;;;;;;;11.82;10.80;;;26.90;99.90;;;;;;5088476;27;20204;-45
2021/07/14 11:20:38;;;;;;;12.63;11.48;;;27.10;99.90;;;;;;5091758;28;20647;-45
2021/07/14 11:23:18;;;;;;;11.95;10.95;;;27.30;99.90;;;;;;5089359;28;20843;-44
2021/07/14 11:25:47;;;;;;;12.60;11.50;;;27.20;99.90;;;;;;5080741;28;20205;-44
2021/07/14 11:28:14;;;;;;;13.52;12.23;;;27.20;99.90;;;;;;5090771;28;20772;-44
2021/07/14 11:30:48;;;;;;;11.60;10.50;;;27.20;99.90;;;;;;5089461;28;20698;-45
2021/07/14 11:33:28;;;;;;;14.75;11.75;;;27.10;99.90;;;;;;5084108;28;20243;-48
2021/07/14 11:36:03;;;;;;;13.55;12.30;;;27.10;99.90;;;;;;5084123;28;20193;-45
2021/07/14 11:38:42;;;;;;;12.52;11.50;;;27.10;99.90;;;;;;5097601;28;20300;-45
2021/07/14 11:41:18;;;;;;;11.85;10.75;;;27.10;99.90;;;;;;5089116;28;20726;-44
2021/07/14 11:43:47;;;;;;;12.07;11.23;;;27.10;99.90;;;;;;5092836;28;20220;-44
2021/07/14 11:46:17;;;;;;;12.93;11.82;;;27.10;99.90;;;;;;5085877;28;20306;-44
2021/07/14 11:48:47;;;;;;;11.73;10.77;;;27.10;99.90;;;;;;5087014;28;20229;-43
2021/07/14 11:51:22;;;;;;;13.90;11.27;;;27.10;99.90;;;;;;5084748;28;20653;-50
2021/07/14 11:53:50;;;;;;;12.07;10.57;;;27.20;99.90;;;;;;5083783;28;20590;-44
2021/07/14 11:56:21;;;;;;;11.38;10.38;;;27.20;99.90;;;;;;5082068;28;20338;-49
2021/07/14 11:58:50;;;;;;;11.40;10.38;;;27.30;99.90;;;;;;5084533;28;20198;-44
2021/07/14 12:02:00;;;;;;;12.40;10.52;;;27.40;99.90;;;;;;5085781;28;20193;-47
2021/07/14 12:04:28;;;;;;;11.85;10.55;;;27.50;99.90;;;;;;5100019;28;20217;-49
2021/07/14 12:07:02;;;;;;;13.15;10.82;;;27.50;99.90;;;;;;5085340;28;20205;-44
2021/07/14 12:09:31;;;;;;;11.55;10.60;;;27.50;99.90;;;;;;5092579;28;20208;-49
2021/07/14 12:12:02;;;;;;;13.10;10.50;;;27.60;99.90;;;;;;5084883;28;20213;-46
2021/07/14 12:14:30;;;;;;;11.00;10.10;;;27.70;99.90;;;;;;5090099;28;20221;-50
2021/07/14 12:17:01;;;;;;;12.25;10.60;;;27.70;99.90;;;;;;5064906;28;20205;-48
2021/07/14 12:19:30;;;;;;;10.63;9.73;;;27.70;99.90;;;;;;5092398;28;20204;-47
2021/07/14 12:22:03;;;;;;;11.32;10.05;;;27.70;99.90;;;;;;5091436;28;20205;-46
2021/07/14 12:24:34;;;;;;;11.07;10.07;;;27.80;99.90;;;;;;5066003;28;20306;-48
2021/07/14 12:27:03;;;;;;;10.07;9.25;;;27.90;99.90;;;;;;5099081;28;20200;-46
2021/07/14 12:29:30;;;;;;;10.52;9.38;;;28.00;99.90;;;;;;5092551;28;20198;-49
2021/07/14 12:31:57;;;;;;;9.98;9.20;;;28.10;99.90;;;;;;5084631;28;20209;-48
2021/07/14 12:34:26;;;;;;;10.27;9.30;;;28.40;99.90;;;;;;5092768;28;20224;-46
2021/07/14 12:36:54;;;;;;;10.90;9.80;;;28.50;99.90;;;;;;5080132;28;20201;-47
2021/07/14 12:39:25;;;;;;;10.65;9.65;;;28.50;99.90;;;;;;5082616;28;20201;-45
2021/07/14 12:41:54;;;;;;;9.88;9.07;;;28.50;99.90;;;;;;5099829;28;20201;-43
2021/07/14 12:44:21;;;;;;;9.23;8.50;;;28.60;99.90;;;;;;5101071;28;20225;-46